Time;durP1;ratioP1;P1;durP2;ratioP2;P2;SDS_P1;SDS_P2;PMS_P1;PMS_P2;Temp;Humidity;BMP_temperature;BMP_pressure;BME280_temperature;BME280_humidity;BME280_pressure;Samples;Min_cycle;Max_cycle;Signal;HPM_P1;HPM_P2
2022/03/26 00:00:34;;;;;;;39.65;22.98;;;;;;;7.85;58.01;102922.44;5076651;28;20024;-89
2022/03/26 00:03:00;;;;;;;41.03;23.15;;;;;;;7.81;58.30;102921.56;5073814;28;20105;-92
2022/03/26 00:05:25;;;;;;;46.30;23.60;;;;;;;7.77;57.83;102922.47;5063063;28;20036;-88
2022/03/26 00:07:50;;;;;;;41.47;23.50;;;;;;;7.69;58.47;102908.38;5067353;28;20025;-89
2022/03/26 00:10:16;;;;;;;41.85;23.30;;;;;;;7.71;58.65;102922.53;5069708;28;20044;-89
2022/03/26 00:12:42;;;;;;;43.80;23.83;;;;;;;7.67;58.83;102923.44;5069687;28;20044;-89
2022/03/26 00:15:08;;;;;;;38.97;23.35;;;;;;;7.63;59.05;102924.34;5066755;28;20043;-89
2022/03/26 00:17:34;;;;;;;39.22;23.38;;;;;;;7.61;59.35;102923.47;5060977;28;20112;-89
2022/03/26 00:19:59;;;;;;;42.20;23.40;;;;;;;7.51;59.23;102917.31;5060751;28;20036;-89
2022/03/26 00:22:25;;;;;;;42.63;23.95;;;;;;;7.53;59.38;102919.97;5066053;28;20032;-89
2022/03/26 00:24:50;;;;;;;48.35;23.92;;;;;;;7.49;59.84;102925.28;5068701;28;20584;-89
2022/03/26 00:27:17;;;;;;;41.08;23.85;;;;;;;7.39;59.67;102909.44;5061179;28;20052;-90
2022/03/26 00:29:42;;;;;;;45.90;23.00;;;;;;;7.34;59.73;102906.81;5056070;28;20075;-90
2022/03/26 00:32:08;;;;;;;44.20;23.02;;;;;;;7.35;60.10;102911.19;5046236;28;20458;-90
2022/03/26 00:34:34;;;;;;;42.22;23.30;;;;;;;7.31;60.33;102909.47;5055817;28;20043;-89
2022/03/26 00:37:00;;;;;;;43.47;23.75;;;;;;;7.23;60.20;102909.50;5065192;28;20056;-89
2022/03/26 00:39:26;;;;;;;39.55;22.25;;;;;;;7.24;60.33;102910.38;5057705;28;20036;-89
2022/03/26 00:41:51;;;;;;;45.10;23.85;;;;;;;7.14;60.32;102901.56;5064638;28;20029;-89
2022/03/26 00:44:17;;;;;;;42.53;24.33;;;;;;;7.18;60.51;102913.03;5067724;28;20085;-89
2022/03/26 00:46:45;;;;;;;43.17;23.80;;;;;;;7.12;60.86;102913.09;5056287;28;20029;-89
2022/03/26 00:49:11;;;;;;;42.15;23.52;;;;;;;7.07;61.02;102907.81;5063873;28;20090;-89
2022/03/26 00:51:36;;;;;;;46.55;24.30;;;;;;;7.07;61.19;102913.09;5054165;28;20131;-89
2022/03/26 00:54:01;;;;;;;45.85;22.25;;;;;;;7.02;61.39;102913.97;5054462;28;20513;-88
2022/03/26 00:56:27;;;;;;;43.80;23.65;;;;;;;6.96;61.10;102899.00;5067276;28;20132;-89
2022/03/26 00:58:52;;;;;;;43.80;24.08;;;;;;;6.92;61.29;102902.53;5058019;28;20425;-89
2022/03/26 01:01:17;;;;;;;42.63;24.52;;;;;;;6.93;61.69;102902.53;5065816;28;20040;-89
2022/03/26 01:03:43;;;;;;;45.10;24.58;;;;;;;6.91;61.81;102904.31;5062478;28;20098;-89
2022/03/26 01:06:08;;;;;;;37.80;23.02;;;;;;;6.88;61.51;102903.44;5065842;28;20028;-89
2022/03/26 01:08:33;;;;;;;43.67;23.98;;;;;;;6.86;61.52;102903.44;5061295;28;20521;-89
2022/03/26 01:10:59;;;;;;;46.65;25.80;;;;;;;6.82;61.90;102896.41;5063615;28;20024;-89
2022/03/26 01:13:25;;;;;;;46.08;25.23;;;;;;;6.79;61.91;102900.81;5066459;28;20474;-88
2022/03/26 01:15:51;;;;;;;46.92;24.52;;;;;;;6.69;62.45;102886.75;5058432;28;20032;-88
2022/03/26 01:18:16;;;;;;;46.05;24.48;;;;;;;6.63;62.04;102892.03;5064234;28;20048;-89
2022/03/26 01:20:42;;;;;;;42.40;23.73;;;;;;;6.62;62.26;102891.16;5061212;28;20129;-88
2022/03/26 01:23:09;;;;;;;51.47;24.83;;;;;;;6.60;62.38;102895.53;5065440;28;20369;-88
2022/03/26 01:25:35;;;;;;;47.63;25.63;;;;;;;6.58;63.03;102901.75;5070439;28;20028;-88
2022/03/26 01:28:00;;;;;;;43.78;23.73;;;;;;;6.53;62.77;102885.00;5062856;28;20033;-88
2022/03/26 01:30:25;;;;;;;44.72;23.40;;;;;;;6.53;63.17;102890.28;5056982;28;20016;-88
2022/03/26 01:32:52;;;;;;;46.67;24.70;;;;;;;6.52;63.01;102889.41;5064420;28;20030;-88
2022/03/26 01:35:18;;;;;;;45.95;23.20;;;;;;;6.48;63.34;102891.19;5067154;28;20090;-88
2022/03/26 01:37:43;;;;;;;46.75;24.80;;;;;;;6.42;63.62;102896.47;5067079;28;20354;-87
2022/03/26 01:40:09;;;;;;;41.28;23.92;;;;;;;6.40;63.47;102877.06;5058316;28;20125;-88
2022/03/26 01:42:34;;;;;;;44.30;24.75;;;;;;;6.35;63.33;102892.03;5063614;28;20057;-88
2022/03/26 01:45:00;;;;;;;46.65;24.63;;;;;;;6.36;63.51;102883.25;5073329;28;20024;-88
2022/03/26 01:47:25;;;;;;;44.30;24.63;;;;;;;6.35;63.62;102889.41;5071908;28;20031;-88
2022/03/26 01:49:53;;;;;;;44.88;24.38;;;;;;;6.33;64.25;102895.59;5064275;28;20047;-88
2022/03/26 01:52:18;;;;;;;52.97;25.48;;;;;;;6.30;64.48;102892.94;5057146;28;20421;-87
2022/03/26 01:54:44;;;;;;;50.58;24.67;;;;;;;6.26;64.64;102896.47;5069879;28;20028;-89
2022/03/26 01:57:10;;;;;;;49.67;26.88;;;;;;;6.20;65.34;102900.88;5058784;28;20048;-88
2022/03/26 01:59:37;;;;;;;48.42;25.33;;;;;;;6.14;65.98;102905.28;5065363;28;20407;-88
2022/03/26 02:02:03;;;;;;;46.55;24.90;;;;;;;6.12;66.78;102909.69;5078228;28;20059;-88
2022/03/26 02:04:28;;;;;;;48.38;25.75;;;;;;;6.06;67.26;102909.66;5064726;28;20079;-88
2022/03/26 02:06:54;;;;;;;52.95;25.85;;;;;;;6.03;67.40;102907.06;5069417;28;20024;-88
2022/03/26 02:09:19;;;;;;;46.80;24.10;;;;;;;5.95;67.44;102901.75;5059872;28;20029;-88
2022/03/26 02:11:46;;;;;;;47.33;26.30;;;;;;;5.97;67.79;102907.91;5063777;28;20056;-88
2022/03/26 02:14:13;;;;;;;44.33;24.65;;;;;;;5.97;67.01;102906.13;5059316;28;20115;-88
2022/03/26 02:16:41;;;;;;;46.65;24.80;;;;;;;5.91;66.93;102892.91;5063738;28;20525;-89
2022/03/26 02:19:08;;;;;;;47.15;24.27;;;;;;;5.87;67.59;102885.84;5065270;28;20082;-88
2022/03/26 02:21:35;;;;;;;45.72;25.10;;;;;;;5.87;67.77;102903.47;5057076;28;20029;-89
2022/03/26 02:24:03;;;;;;;45.70;25.25;;;;;;;5.86;67.92;102909.63;5056555;28;20046;-89
2022/03/26 02:26:29;;;;;;;46.08;26.08;;;;;;;5.83;67.79;102902.56;5061865;28;20127;-89
2022/03/26 02:28:57;;;;;;;48.67;25.25;;;;;;;5.77;68.08;102905.22;5062783;28;23096;-88
2022/03/26 02:31:26;;;;;;;48.00;25.45;;;;;;;5.75;68.57;102899.03;5062055;28;20037;-89
2022/03/26 02:33:52;;;;;;;48.60;26.10;;;;;;;5.72;68.69;102904.31;5066609;28;20027;-88
2022/03/26 02:36:18;;;;;;;50.20;26.95;;;;;;;5.60;68.34;102888.41;5058069;28;20028;-89
2022/03/26 02:38:43;;;;;;;46.90;25.02;;;;;;;5.56;68.99;102890.19;5061161;28;20033;-89
2022/03/26 02:41:09;;;;;;;50.35;25.20;;;;;;;5.64;68.93;102898.13;5055507;28;20116;-89
2022/03/26 02:43:35;;;;;;;51.85;26.60;;;;;;;5.58;69.15;102896.34;5063222;28;20024;-88
2022/03/26 02:46:01;;;;;;;52.85;27.25;;;;;;;5.58;69.33;102904.28;5068337;28;20063;-89
2022/03/26 02:48:27;;;;;;;46.55;24.88;;;;;;;5.55;68.94;102904.25;5067782;28;20210;-88
2022/03/26 02:50:54;;;;;;;50.58;26.60;;;;;;;5.55;69.49;102906.03;5063414;28;20074;-89
2022/03/26 02:53:19;;;;;;;51.35;25.25;;;;;;;5.53;69.08;102897.22;5054095;28;20103;-89
2022/03/26 02:55:45;;;;;;;52.72;25.90;;;;;;;5.46;69.43;102891.03;5069727;28;20140;-89
2022/03/26 02:58:10;;;;;;;49.17;26.30;;;;;;;5.48;69.34;102895.47;5062834;28;20359;-89
2022/03/26 03:00:38;;;;;;;48.58;26.20;;;;;;;5.46;68.94;102894.56;5055068;28;20029;-89
2022/03/26 03:03:03;;;;;;;53.45;25.55;;;;;;;5.46;69.06;102886.63;5062475;28;20033;-89
2022/03/26 03:05:29;;;;;;;52.35;25.48;;;;;;;5.47;69.14;102893.66;5065650;28;20025;-89
2022/03/26 03:07:54;;;;;;;53.50;26.67;;;;;;;5.46;68.99;102891.03;5065910;28;20387;-87
2022/03/26 03:10:20;;;;;;;46.47;25.55;;;;;;;5.42;69.47;102895.41;5064863;28;20020;-87
2022/03/26 03:12:47;;;;;;;56.80;27.42;;;;;;;5.39;69.57;102887.50;5066975;28;20481;-87
2022/03/26 03:15:12;;;;;;;49.30;26.05;;;;;;;5.37;69.43;102891.88;5067942;28;20090;-87
2022/03/26 03:17:40;;;;;;;46.40;24.90;;;;;;;5.36;69.19;102894.53;5052780;28;20390;-88
2022/03/26 03:20:07;;;;;;;48.83;25.58;;;;;;;5.31;69.46;102894.53;5062021;28;20036;-87
2022/03/26 03:22:33;;;;;;;47.78;26.27;;;;;;;5.24;69.68;102890.97;5067500;28;20693;-87
2022/03/26 03:24:58;;;;;;;50.30;25.77;;;;;;;5.26;70.36;102904.16;5064843;28;20033;-88
2022/03/26 03:27:24;;;;;;;51.55;26.63;;;;;;;5.19;70.85;102903.28;5057021;28;20043;-88
2022/03/26 03:29:49;;;;;;;53.00;25.65;;;;;;;5.13;71.15;102894.44;5072472;28;20059;-89
2022/03/26 03:32:15;;;;;;;55.08;27.13;;;;;;;5.10;71.25;102899.69;5064625;28;20480;-87
2022/03/26 03:34:40;;;;;;;50.95;26.25;;;;;;;5.06;71.52;102893.53;5064076;28;20032;-88
2022/03/26 03:37:06;;;;;;;49.30;25.92;;;;;;;5.05;72.17;102898.78;5057740;28;20029;-88
2022/03/26 03:39:32;;;;;;;50.55;26.13;;;;;;;4.91;72.45;102881.13;5062546;28;20020;-88
2022/03/26 03:41:58;;;;;;;53.22;26.52;;;;;;;5.00;72.41;102897.00;5064777;28;20043;-89
2022/03/26 03:44:23;;;;;;;51.20;27.10;;;;;;;4.98;72.14;102904.03;5061547;28;20477;-89
2022/03/26 03:46:48;;;;;;;50.13;26.38;;;;;;;4.91;72.49;102891.69;5065813;28;20086;-88
2022/03/26 03:49:14;;;;;;;51.83;26.85;;;;;;;4.87;72.43;102889.91;5063415;28;20370;-88
2022/03/26 03:51:39;;;;;;;46.92;24.95;;;;;;;4.84;71.88;102881.97;5072658;28;20029;-88
2022/03/26 03:54:05;;;;;;;54.90;26.23;;;;;;;4.93;71.90;102895.22;5075564;28;20020;-89
2022/03/26 03:56:31;;;;;;;46.42;26.13;;;;;;;4.92;71.64;102895.19;5069385;28;20044;-88
2022/03/26 03:58:56;;;;;;;48.65;24.25;;;;;;;4.93;71.56;102903.16;5069285;28;20040;-88
2022/03/26 04:01:22;;;;;;;52.58;27.65;;;;;;;4.82;72.02;102893.41;5067326;28;20028;-89
2022/03/26 04:03:47;;;;;;;52.50;26.63;;;;;;;4.84;72.47;102899.56;5064466;28;20385;-88
2022/03/26 04:06:12;;;;;;;52.35;26.05;;;;;;;4.78;72.57;102900.41;5056991;28;20067;-89
2022/03/26 04:08:38;;;;;;;50.25;26.20;;;;;;;4.76;72.85;102902.13;5063331;28;20032;-88
2022/03/26 04:11:03;;;;;;;53.75;27.85;;;;;;;4.66;73.90;102900.31;5067689;28;20021;-88
2022/03/26 04:13:28;;;;;;;46.60;26.27;;;;;;;4.67;74.28;102908.25;5059492;28;20855;-88
2022/03/26 04:15:54;;;;;;;52.90;26.90;;;;;;;4.67;74.22;102907.38;5058957;28;20075;-89
2022/03/26 04:18:20;;;;;;;51.13;26.58;;;;;;;4.63;74.26;102909.09;5061448;28;20062;-88
2022/03/26 04:20:45;;;;;;;51.35;27.23;;;;;;;4.64;74.59;102909.97;5065644;28;20069;-88
2022/03/26 04:23:10;;;;;;;51.92;26.63;;;;;;;4.59;74.76;102903.78;5063191;28;20027;-88
2022/03/26 04:25:36;;;;;;;50.63;27.38;;;;;;;4.57;75.04;102903.78;5059800;28;20056;-87
2022/03/26 04:28:01;;;;;;;55.55;27.77;;;;;;;4.46;75.20;102895.78;5058330;28;20483;-87
2022/03/26 04:30:26;;;;;;;51.42;26.45;;;;;;;4.58;74.94;102918.75;5056865;28;20321;-88
2022/03/26 04:32:51;;;;;;;49.88;24.67;;;;;;;4.52;75.09;102908.16;5058558;28;20025;-89
2022/03/26 04:35:17;;;;;;;46.80;25.88;;;;;;;4.57;74.21;102916.09;5058048;28;20118;-88
2022/03/26 04:37:42;;;;;;;55.05;27.52;;;;;;;4.51;74.97;102914.28;5058344;28;20039;-88
2022/03/26 04:40:11;;;;;;;52.13;27.85;;;;;;;4.47;74.73;102908.13;5053642;28;20032;-88
2022/03/26 04:42:37;;;;;;;52.60;27.63;;;;;;;4.48;75.31;102915.16;5057856;28;20039;-89
2022/03/26 04:45:03;;;;;;;51.50;26.75;;;;;;;4.47;74.55;102910.75;5054071;28;20033;-88
2022/03/26 04:47:28;;;;;;;51.50;26.48;;;;;;;4.44;74.54;102918.66;5054980;28;20155;-88
2022/03/26 04:49:53;;;;;;;53.88;27.35;;;;;;;4.38;74.86;102902.75;5055316;28;20497;-88
2022/03/26 04:52:19;;;;;;;54.30;27.65;;;;;;;4.38;75.29;102912.44;5058477;28;20079;-88
2022/03/26 04:54:44;;;;;;;52.17;27.20;;;;;;;4.36;75.26;102916.81;5053338;28;20024;-88
2022/03/26 04:57:10;;;;;;;51.70;25.70;;;;;;;4.35;75.43;102908.03;5042031;28;20079;-87
2022/03/26 04:59:35;;;;;;;53.15;26.92;;;;;;;4.31;74.99;102900.97;5060111;28;20054;-88
2022/03/26 05:02:00;;;;;;;52.80;27.50;;;;;;;4.35;75.10;102905.41;5054999;28;20033;-89
2022/03/26 05:04:26;;;;;;;48.90;25.92;;;;;;;4.33;74.97;102903.59;5060364;28;20115;-88
2022/03/26 05:06:51;;;;;;;50.00;25.67;;;;;;;4.31;75.02;102908.88;5063851;28;20402;-88
2022/03/26 05:09:16;;;;;;;53.60;27.10;;;;;;;4.26;75.17;102902.66;5054024;28;20081;-88
2022/03/26 05:11:42;;;;;;;51.47;27.55;;;;;;;4.29;74.80;102907.09;5060332;28;20032;-88
2022/03/26 05:14:07;;;;;;;47.53;25.88;;;;;;;4.30;74.87;102906.22;5057718;28;20105;-89
2022/03/26 05:16:33;;;;;;;48.08;25.70;;;;;;;4.23;75.00;102900.03;5062401;28;20028;-89
2022/03/26 05:18:58;;;;;;;51.10;25.55;;;;;;;4.20;74.48;102905.25;5059700;28;20031;-88
2022/03/26 05:21:23;;;;;;;49.97;25.85;;;;;;;4.25;74.49;102903.53;5066796;28;20025;-89
2022/03/26 05:23:48;;;;;;;51.22;27.90;;;;;;;4.17;74.49;102897.31;5067980;28;20031;-89
2022/03/26 05:26:14;;;;;;;52.65;26.35;;;;;;;4.20;74.37;102914.03;5072300;28;20028;-88
2022/03/26 05:28:39;;;;;;;51.85;27.67;;;;;;;4.16;74.60;102914.00;5065187;28;20028;-88
2022/03/26 05:31:05;;;;;;;52.15;26.90;;;;;;;4.18;74.72;102914.88;5051173;28;20087;-88
2022/03/26 05:33:31;;;;;;;50.45;26.35;;;;;;;4.17;74.78;102921.03;5062807;28;20023;-88
2022/03/26 05:35:56;;;;;;;53.08;27.25;;;;;;;4.13;75.27;102930.66;5058744;28;20036;-88
2022/03/26 05:38:22;;;;;;;49.75;26.55;;;;;;;4.10;75.42;102920.13;5056538;28;20036;-89
2022/03/26 05:40:47;;;;;;;49.83;27.02;;;;;;;4.07;76.15;102937.66;5060258;28;20032;-89
2022/03/26 05:43:13;;;;;;;50.75;26.30;;;;;;;4.07;76.49;102932.38;5059038;28;20049;-89
2022/03/26 05:45:38;;;;;;;50.45;26.15;;;;;;;4.07;76.93;102940.28;5069065;28;20389;-88
2022/03/26 05:48:05;;;;;;;56.00;26.17;;;;;;;4.04;76.88;102932.34;5060951;28;20032;-89
2022/03/26 05:50:30;;;;;;;49.55;26.35;;;;;;;4.01;76.77;102927.91;5061847;28;20385;-90
2022/03/26 05:52:56;;;;;;;51.13;27.42;;;;;;;4.09;76.84;102943.81;5060976;28;20029;-90
2022/03/26 05:55:22;;;;;;;50.97;27.02;;;;;;;4.14;76.95;102943.00;5057254;28;20028;-89
2022/03/26 05:57:47;;;;;;;52.22;27.08;;;;;;;4.16;76.88;102945.63;5063557;28;20048;-89
2022/03/26 06:00:13;;;;;;;53.30;26.63;;;;;;;4.19;77.02;102951.81;5065876;28;20398;-88
2022/03/26 06:02:38;;;;;;;51.63;27.00;;;;;;;4.20;76.69;102953.59;5061146;28;20064;-89
2022/03/26 06:05:05;;;;;;;56.40;26.70;;;;;;;4.23;76.62;102968.56;5065263;28;20111;-89
2022/03/26 06:07:30;;;;;;;50.28;26.45;;;;;;;4.23;76.82;102958.88;5069211;28;20435;-89
2022/03/26 06:09:55;;;;;;;49.28;25.60;;;;;;;4.27;76.50;102961.56;5068007;28;20099;-88
2022/03/26 06:12:21;;;;;;;51.72;25.70;;;;;;;4.30;76.35;102958.94;5064469;28;20152;-88
2022/03/26 06:14:46;;;;;;;55.28;26.08;;;;;;;4.36;76.71;102972.19;5065476;28;20052;-88
2022/03/26 06:17:11;;;;;;;48.63;26.00;;;;;;;4.36;76.30;102972.19;5073853;28;20489;-88
2022/03/26 06:19:38;;;;;;;50.78;26.17;;;;;;;4.38;75.85;102967.78;5074940;28;20154;-88
2022/03/26 06:22:04;;;;;;;53.55;27.27;;;;;;;4.44;75.90;102979.28;5059648;28;20504;-89
2022/03/26 06:24:29;;;;;;;51.17;26.63;;;;;;;4.48;75.79;102974.94;5073128;28;20433;-88
2022/03/26 06:26:55;;;;;;;47.78;26.30;;;;;;;4.54;75.67;102974.97;5073108;28;20118;-89
2022/03/26 06:29:20;;;;;;;52.10;26.95;;;;;;;4.61;75.35;102962.72;5051701;28;20086;-89
2022/03/26 06:31:46;;;;;;;60.58;25.83;;;;;;;4.78;75.15;102969.00;5052267;28;20038;-88
2022/03/26 06:34:11;;;;;;;49.10;25.75;;;;;;;4.98;74.49;102962.09;5050921;28;20029;-89
2022/03/26 06:36:37;;;;;;;50.17;26.20;;;;;;;5.19;74.28;102971.03;5057472;28;20028;-86
2022/03/26 06:39:06;;;;;;;49.20;26.25;;;;;;;5.36;73.34;102979.03;5061306;28;20119;-87
2022/03/26 06:41:31;;;;;;;46.08;27.42;;;;;;;5.49;72.56;102979.09;5064920;28;20040;-87
2022/03/26 06:43:57;;;;;;;57.17;25.95;;;;;;;5.67;71.99;102973.00;5065557;28;20025;-87
2022/03/26 06:46:22;;;;;;;52.92;27.75;;;;;;;5.85;71.30;102966.00;5065220;28;20025;-86
2022/03/26 06:48:47;;;;;;;46.45;26.30;;;;;;;6.09;70.56;102978.41;5062016;28;20029;-87
2022/03/26 06:51:13;;;;;;;54.78;27.10;;;;;;;6.21;69.86;102973.16;5051724;28;20029;-87
2022/03/26 06:53:38;;;;;;;47.28;25.85;;;;;;;6.43;69.31;102977.56;5062903;28;20178;-87
2022/03/26 06:56:07;;;;;;;47.47;26.92;;;;;;;6.60;68.79;102981.97;5056016;28;20107;-87
2022/03/26 06:58:34;;;;;;;49.50;26.83;;;;;;;6.76;68.16;102983.75;5051300;28;20083;-88
2022/03/26 07:01:00;;;;;;;49.85;26.50;;;;;;;6.95;67.46;102988.16;5061169;28;20036;-88
2022/03/26 07:03:25;;;;;;;51.30;26.77;;;;;;;7.16;66.99;103004.88;5059418;28;20141;-88
2022/03/26 07:05:51;;;;;;;48.85;26.08;;;;;;;7.33;66.45;102997.75;5059966;28;20134;-88
2022/03/26 07:08:17;;;;;;;43.47;25.00;;;;;;;7.54;65.77;102995.94;5063942;28;20414;-87
2022/03/26 07:10:45;;;;;;;48.05;26.35;;;;;;;7.69;65.00;102991.47;5059301;28;20064;-87
2022/03/26 07:13:11;;;;;;;49.17;25.98;;;;;;;7.93;64.48;102995.72;5061554;28;20039;-87
2022/03/26 07:15:36;;;;;;;45.83;26.08;;;;;;;8.18;63.58;102999.13;5059648;28;20517;-87
2022/03/26 07:18:02;;;;;;;46.08;26.05;;;;;;;8.44;62.58;103004.31;5059180;28;20037;-88
2022/03/26 07:20:28;;;;;;;46.33;25.55;;;;;;;8.73;62.68;103001.38;5066556;28;20082;-87
2022/03/26 07:22:53;;;;;;;47.75;26.42;;;;;;;8.95;61.32;102994.13;5053631;28;20024;-87
2022/03/26 07:25:18;;;;;;;41.22;23.60;;;;;;;9.17;60.65;102994.78;5062602;28;20669;-88
2022/03/26 07:27:43;;;;;;;44.85;24.85;;;;;;;9.42;59.88;102987.41;5059430;28;20124;-87
2022/03/26 07:30:10;;;;;;;44.15;23.40;;;;;;;9.78;59.05;102994.91;5068274;28;20039;-87
2022/03/26 07:32:35;;;;;;;42.90;24.23;;;;;;;10.00;57.55;102996.41;5066401;28;20574;-88
2022/03/26 07:35:02;;;;;;;41.13;23.58;;;;;;;10.10;57.01;102995.34;5065961;28;20523;-86
2022/03/26 07:37:28;;;;;;;42.47;23.38;;;;;;;10.25;56.77;102991.63;5064325;28;20036;-86
2022/03/26 07:39:53;;;;;;;39.88;22.58;;;;;;;10.53;55.99;102997.38;5065881;28;20031;-87
2022/03/26 07:42:18;;;;;;;36.25;22.40;;;;;;;10.86;55.26;103003.03;5059108;28;20123;-88
2022/03/26 07:44:44;;;;;;;40.97;21.80;;;;;;;11.22;54.38;102994.38;5063133;28;20033;-87
2022/03/26 07:47:09;;;;;;;41.67;21.73;;;;;;;11.44;52.57;103004.63;5068118;28;20090;-90
2022/03/26 07:49:35;;;;;;;37.90;21.42;;;;;;;11.57;52.15;103000.78;5063022;28;20036;-87
2022/03/26 07:52:00;;;;;;;37.45;21.60;;;;;;;11.86;51.75;103002.00;5065202;28;20080;-87
2022/03/26 07:54:26;;;;;;;37.55;21.50;;;;;;;12.13;50.53;103011.19;5061910;28;20125;-88
2022/03/26 07:56:51;;;;;;;41.03;22.90;;;;;;;12.47;51.23;103013.94;5063337;28;20028;-85
2022/03/26 07:59:16;;;;;;;39.65;22.13;;;;;;;12.63;49.13;103009.09;5064497;28;20033;-85
2022/03/26 08:01:42;;;;;;;37.10;22.38;;;;;;;12.77;48.88;103008.75;5068538;28;20032;-88
2022/03/26 08:04:07;;;;;;;34.15;21.25;;;;;;;13.11;48.03;103006.06;5064521;28;20119;-87
2022/03/26 08:06:33;;;;;;;36.55;21.02;;;;;;;13.42;47.29;103004.34;5070530;28;20537;-86
2022/03/26 08:08:58;;;;;;;35.65;20.55;;;;;;;13.99;46.27;103009.81;5063641;28;20392;-88
2022/03/26 08:11:23;;;;;;;39.75;21.52;;;;;;;14.36;45.87;103006.84;5066579;28;20024;-87
2022/03/26 08:13:49;;;;;;;33.80;21.20;;;;;;;14.72;44.61;103006.59;5061728;28;20028;-87
2022/03/26 08:16:14;;;;;;;37.17;21.75;;;;;;;15.03;43.24;103011.75;5068678;28;20355;-87
2022/03/26 08:18:40;;;;;;;34.50;21.05;;;;;;;15.25;43.04;103009.19;5065420;28;20572;-88
2022/03/26 08:21:05;;;;;;;36.83;21.15;;;;;;;15.55;42.19;103012.53;5064051;28;20078;-88
2022/03/26 08:23:31;;;;;;;36.80;20.98;;;;;;;15.97;41.93;103011.88;5059453;28;20090;-88
2022/03/26 08:28:40;;;;;;;31.92;20.13;;;;;;;17.15;40.21;103006.06;5067756;28;20087;-85
2022/03/26 08:31:10;;;;;;;32.53;20.35;;;;;;;17.57;38.66;103010.44;5069815;28;20108;-85
2022/03/26 08:33:36;;;;;;;32.33;20.52;;;;;;;17.86;37.90;103013.66;5070204;28;20028;-87
2022/03/26 08:36:02;;;;;;;35.65;19.98;;;;;;;18.05;37.14;103013.63;5059822;28;20032;-89
2022/03/26 08:38:27;;;;;;;30.85;20.48;;;;;;;18.42;36.62;103010.88;5075140;28;20051;-87
2022/03/26 08:40:53;;;;;;;33.63;19.98;;;;;;;18.83;36.02;103007.09;5063909;28;20474;-87
2022/03/26 08:43:18;;;;;;;35.13;20.02;;;;;;;18.89;35.78;103007.66;5065698;28;20028;-88
2022/03/26 08:45:43;;;;;;;35.55;19.13;;;;;;;19.22;35.23;103003.25;5062635;28;20097;-87
2022/03/26 08:48:08;;;;;;;33.78;20.17;;;;;;;19.76;34.21;103014.75;5063808;28;20032;-88
2022/03/26 08:50:34;;;;;;;30.83;19.60;;;;;;;20.18;33.85;103016.00;5064514;28;20750;-88
2022/03/26 08:53:00;;;;;;;29.38;18.17;;;;;;;20.43;32.78;103023.56;5062855;28;20028;-87
2022/03/26 08:55:26;;;;;;;27.95;18.52;;;;;;;20.81;32.42;103014.09;5061517;28;20055;-88
2022/03/26 08:57:51;;;;;;;26.08;17.75;;;;;;;21.37;32.03;103007.09;5060288;28;20028;-88
2022/03/26 09:00:17;;;;;;;30.27;19.55;;;;;;;21.43;30.87;103008.53;5069566;28;20057;-89
2022/03/26 09:02:44;;;;;;;30.10;18.83;;;;;;;21.61;30.63;103001.06;5065353;28;20032;-90
2022/03/26 09:05:09;;;;;;;30.25;19.25;;;;;;;21.92;29.61;103005.41;5065971;28;20029;-88
2022/03/26 09:07:35;;;;;;;33.05;18.52;;;;;;;22.23;29.44;103011.56;5061716;28;20490;-89
2022/03/26 09:10:01;;;;;;;28.88;18.55;;;;;;;22.20;29.43;103020.78;5066363;28;20012;-88
2022/03/26 09:12:26;;;;;;;30.40;18.10;;;;;;;22.58;29.20;103017.38;5067483;28;20458;-89
2022/03/26 09:14:52;;;;;;;29.73;19.17;;;;;;;23.11;28.41;103013.69;5065356;28;20059;-90
2022/03/26 09:17:17;;;;;;;34.22;21.48;;;;;;;23.35;27.42;103015.66;5060833;28;20039;-89
2022/03/26 09:19:42;;;;;;;28.75;19.33;;;;;;;23.74;27.48;103028.25;5060530;28;20042;-89
2022/03/26 09:22:08;;;;;;;31.83;19.60;;;;;;;23.68;27.03;103026.00;5063397;28;20469;-89
2022/03/26 09:24:33;;;;;;;29.65;18.15;;;;;;;24.06;26.83;103019.63;5063873;28;20032;-89
2022/03/26 09:26:58;;;;;;;26.63;19.20;;;;;;;24.15;26.34;103032.53;5067675;28;20029;-88
2022/03/26 09:29:24;;;;;;;31.42;19.67;;;;;;;24.30;26.36;103031.41;5072056;28;20042;-89
2022/03/26 09:31:49;;;;;;;31.67;20.33;;;;;;;24.48;26.14;103033.75;5068467;28;20036;-89
2022/03/26 09:34:14;;;;;;;32.67;20.73;;;;;;;24.31;25.60;103037.72;5064108;28;20024;-89
2022/03/26 09:36:40;;;;;;;30.15;19.60;;;;;;;24.29;26.32;103039.69;5064273;28;20494;-89
2022/03/26 09:39:05;;;;;;;30.48;20.38;;;;;;;24.95;25.28;103026.50;5069491;28;20020;-88
2022/03/26 09:41:32;;;;;;;32.22;20.20;;;;;;;25.10;25.22;103030.81;5079016;28;20016;-89
2022/03/26 09:43:58;;;;;;;30.83;19.77;;;;;;;25.22;24.57;103031.69;5065863;28;20058;-88
2022/03/26 09:46:24;;;;;;;30.15;20.75;;;;;;;25.71;24.79;103030.47;5064998;28;20469;-89
2022/03/26 09:48:50;;;;;;;33.03;21.73;;;;;;;26.38;23.71;103022.25;5064066;28;20116;-89
2022/03/26 09:51:20;;;;;;;32.40;21.40;;;;;;;26.32;23.82;103029.06;5066631;28;20117;-90
2022/03/26 09:53:47;;;;;;;37.15;22.35;;;;;;;26.43;23.42;103021.84;5068489;28;20401;-89
2022/03/26 09:56:12;;;;;;;33.60;20.58;;;;;;;26.32;23.38;103023.59;5071392;28;20107;-90
2022/03/26 09:58:37;;;;;;;34.00;20.83;;;;;;;26.78;23.23;103006.06;5068276;28;20115;-90
2022/03/26 10:01:03;;;;;;;30.30;19.38;;;;;;;26.80;22.26;103022.34;5065096;28;20072;-88
2022/03/26 10:03:28;;;;;;;36.08;21.60;;;;;;;26.72;22.62;103022.16;5067050;28;20020;-88
2022/03/26 10:06:03;;;;;;;33.28;21.40;;;;;;;27.40;23.21;103017.16;5065875;28;20497;-88
2022/03/26 10:08:33;;;;;;;35.40;20.75;;;;;;;27.30;22.22;103028.06;5057619;28;20109;-86
2022/03/26 10:10:58;;;;;;;32.95;20.17;;;;;;;26.95;22.02;103020.16;5073506;28;20024;-89
2022/03/26 10:13:42;;;;;;;30.10;19.17;;;;;;;27.05;23.39;103018.38;5070409;28;20102;-86
2022/03/26 10:16:13;;;;;;;29.65;20.23;;;;;;;27.03;22.07;103020.34;5058852;28;20102;-85
2022/03/26 10:18:42;;;;;;;30.75;21.05;;;;;;;27.08;22.37;103016.22;5057893;28;20033;-90
2022/03/26 10:21:18;;;;;;;33.28;21.10;;;;;;;27.14;23.12;103016.72;5063224;28;20584;-89
2022/03/26 10:23:49;;;;;;;31.02;20.77;;;;;;;27.52;22.79;103016.94;5063381;28;20033;-90
2022/03/26 10:26:22;;;;;;;26.17;18.98;;;;;;;27.94;21.87;103025.03;5062966;28;20056;-93
2022/03/26 10:28:56;;;;;;;28.00;18.73;;;;;;;28.26;22.06;103019.38;5058035;28;20114;-91
2022/03/26 10:34:21;;;;;;;27.38;18.13;;;;;;;28.47;21.02;103013.81;5056157;28;20044;-86
2022/03/26 10:36:55;;;;;;;26.90;18.25;;;;;;;28.77;20.37;103020.13;5063988;28;20059;-87
2022/03/26 10:39:25;;;;;;;25.38;17.60;;;;;;;29.01;20.66;103017.84;5065197;28;20131;-89
2022/03/26 10:41:52;;;;;;;24.65;16.95;;;;;;;29.32;19.82;103009.38;5059688;28;20020;-88
2022/03/26 10:44:22;;;;;;;27.92;17.98;;;;;;;29.31;19.45;103015.03;5057032;28;20025;-87
2022/03/26 10:46:51;;;;;;;25.05;16.85;;;;;;;29.56;19.24;103011.66;5068010;28;20094;-87
2022/03/26 10:49:36;;;;;;;23.75;17.25;;;;;;;30.33;19.15;103004.00;5067471;28;20028;-87
2022/03/26 10:52:20;;;;;;;23.10;16.17;;;;;;;30.27;18.67;103010.97;5063135;28;20025;-88
2022/03/26 10:54:47;;;;;;;25.45;16.13;;;;;;;28.88;19.55;103008.13;5071843;28;20273;-94
2022/03/26 10:57:13;;;;;;;24.70;16.42;;;;;;;28.22;19.98;103009.69;5062263;28;20033;-88
2022/03/26 10:59:38;;;;;;;24.10;16.88;;;;;;;27.94;20.55;103008.63;5062028;28;20401;-87
2022/03/26 11:02:03;;;;;;;21.73;15.77;;;;;;;28.02;20.25;103006.06;5061584;28;20024;-86
2022/03/26 11:04:29;;;;;;;25.67;15.73;;;;;;;27.73;19.74;103000.50;5063354;28;20476;-87
2022/03/26 11:06:58;;;;;;;24.67;15.25;;;;;;;28.19;19.95;103004.50;5082374;28;20381;-89
2022/03/26 11:09:25;;;;;;;21.10;15.13;;;;;;;28.95;18.74;103001.06;5073929;28;20074;-86
2022/03/26 11:11:51;;;;;;;18.77;14.05;;;;;;;29.67;17.54;102994.97;5068382;28;20024;-87
2022/03/26 11:14:20;;;;;;;20.85;12.98;;;;;;;29.83;17.54;102999.81;5065899;28;20031;-86